Latest Weather Observations for Parafield

IDS60901

Issued at 10:41 pm CST Tuesday 28 July 2015 (issued every 10 minutes, with the page automatically refreshed every 10 minutes)

About weather observations | Map of Adelaide area stations | Latest observations for Adelaide area | Other Formats
Station Details ID: 023013 Name: PARAFIELD AIRPORT Lat: -34.80 Lon: 138.63 Height: 9.5 m
Data from the previous 72 hours. | See also: Recent months at Parafield
Date/Time
CST
Tmp

°C
App
Tmp
°C
Dew
Point
°C
Rel
Hum
%
Delta-T

°C
Wind Press
QNH
hPa
Press
MSL
hPa
Rain
since
9 am
mm
Dir
 
Spd
km/h
Gust
km/h
Spd
kts
Gust
kts
28/10:30pm 7.8 5.6 6.4 91 0.6 NNE 7 9 4 5 1033.5 1033.5 0.0
28/10:00pm 7.2 5.1 6.0 92 0.5 N 6 7 3 4 1034.1 1034.1 0.0
28/09:30pm 7.1 4.8 5.9 92 0.5 N 7 9 4 5 1034.3 1034.3 0.0
28/09:00pm 7.1 4.4 5.6 90 0.7 E 9 11 5 6 1034.2 1034.2 0.0
28/08:30pm 7.7 6.7 5.8 88 0.8 CALM 0 0 0 0 1034.6 1034.6 0.0
28/08:00pm 8.6 6.5 6.6 87 0.9 WNW 7 15 4 8 1034.6 1034.6 0.0
28/07:30pm 8.2 7.4 6.7 90 0.7 CALM 0 0 0 0 1034.5 1034.5 0.0
28/07:00pm 8.3 6.7 6.3 87 0.9 ESE 4 6 2 3 1034.4 1034.4 0.0
28/06:30pm 8.5 7.7 6.3 86 1.0 CALM 0 0 0 0 1034.6 1034.6 0.0
28/06:00pm 8.9 6.8 5.8 81 1.4 S 6 7 3 4 1034.4 1034.4 0.0
28/05:30pm 10.1 7.6 6.4 78 1.7 WSW 9 11 5 6 1034.7 1034.7 0.0
28/05:00pm 11.0 8.9 6.7 75 2.0 WSW 7 9 4 5 1034.7 1034.7 0.0
28/04:30pm 12.1 10.1 7.2 72 2.3 SW 7 9 4 5 1034.7 1034.7 0.0
28/04:00pm 12.0 9.9 6.7 70 2.5 SW 7 9 4 5 1034.8 1034.8 0.0
28/03:30pm 12.2 10.2 6.3 67 2.8 SSW 6 7 3 4 1034.8 1034.8 0.0
28/03:00pm 12.3 11.1 6.6 68 2.7 SSW 2 6 1 3 1034.7 1034.7 0.0
28/02:30pm 12.2 11.0 6.3 67 2.8 SE 2 6 1 3 1034.8 1034.8 0.0
28/02:00pm 12.3 10.8 6.8 69 2.6 E 4 7 2 4 1035.2 1035.2 0.0
28/01:30pm 12.1 11.4 6.8 70 2.5 CALM 0 0 0 0 1035.7 1035.7 0.0
28/01:00pm 12.5 10.8 7.4 71 2.5 E 6 13 3 7 1036.2 1036.2 0.0
28/12:30pm 11.7 9.8 6.8 72 2.3 N 6 9 3 5 1036.9 1036.9 0.0
28/12:03pm 12.2 10.4 7.1 71 2.4 N 6 9 3 5 1037.5 1037.5 0.0
28/12:00pm 11.9 10.1 7.2 73 2.2 NNW 6 9 3 5 1037.5 1037.5 0.0
28/11:30am 11.1 10.4 7.0 76 1.9 CALM 0 6 0 3 1038.0 1038.0 0.0
28/11:00am 11.0 9.1 7.7 80 1.6 NNE 7 11 4 6 1038.3 1038.3 0.0
28/10:30am 10.8 8.2 7.9 82 1.4 NNE 11 15 6 8 1038.4 1038.4 0.0
28/10:00am 10.0 6.9 7.3 83 1.3 N 13 15 7 8 1038.3 1038.3 0.0
28/09:30am 9.6 6.5 7.4 86 1.0 N 13 17 7 9 1038.2 1038.2 0.0
28/09:00am 9.0 6.7 7.6 91 0.7 N 9 13 5 7 1037.9 1037.9 2.2
28/08:30am 7.6 5.2 7.0 96 0.3 NNE 9 11 5 6 1038.0 1038.0 2.2
28/08:00am 6.9 4.4 6.5 97 0.2 NNE 9 11 5 6 1038.0 1038.0 2.2
28/07:30am 5.3 2.4 4.7 96 0.3 NE 9 11 5 6 1038.1 1038.1 2.2
28/07:28am 5.2 2.3 4.6 96 0.3 NE 9 11 5 6 1038.2 1038.2 2.2
28/07:00am 5.6 2.8 5.0 96 0.3 NE 9 11 5 6 1037.9 1037.9 2.2
28/06:36am 5.7 3.3 5.1 96 0.3 NNE 7 9 4 5 1037.7 1037.7 2.2
28/06:30am 6.3 4.2 5.7 96 0.3 N 6 9 3 5 1037.6 1037.6 2.2
28/06:19am 6.3 4.0 5.7 96 0.3 NNE 7 9 4 5 1037.6 1037.6 2.2
28/06:05am 6.7 4.5 6.0 95 0.3 NE 7 7 4 4 1037.6 1037.6 2.2
28/06:00am 6.6 4.3 5.9 95 0.3 ENE 7 9 4 5 1037.6 1037.6 2.2
28/05:30am 7.5 6.0 6.9 96 0.3 NE 4 6 2 3 1037.2 1037.2 2.0
28/05:00am 6.8 4.6 6.1 95 0.3 NE 7 7 4 4 1036.7 1036.7 2.0
28/04:30am 7.3 5.4 6.6 95 0.3 NE 6 6 3 3 1036.6 1036.6 2.0
28/04:05am 7.3 4.8 6.6 95 0.3 NNE 9 9 5 5 1036.5 1036.5 2.0
28/04:00am 7.2 4.7 6.5 95 0.3 NNE 9 9 5 5 1036.4 1036.4 2.0
28/03:30am 7.9 5.2 7.3 96 0.3 NE 11 13 6 7 1036.3 1036.3 2.0
28/03:00am 7.7 4.9 7.1 96 0.3 NNE 11 13 6 7 1036.6 1036.6 2.0
28/02:30am 7.3 4.8 6.7 96 0.3 NE 9 13 5 7 1036.7 1036.7 2.0
28/02:00am 7.3 4.8 6.7 96 0.3 NNE 9 13 5 7 1036.7 1036.7 2.0
28/01:30am 6.9 4.3 6.3 96 0.3 NE 9 11 5 6 1036.6 1036.6 2.0
28/01:29am 6.9 4.3 6.3 96 0.3 NE 9 11 5 6 1036.6 1036.6 2.0
28/01:00am 6.7 4.1 6.0 95 0.3 NNE 9 11 5 6 1036.5 1036.5 2.0
28/12:50am 7.0 4.4 6.3 95 0.3 NE 9 11 5 6 1036.5 1036.5 2.0
28/12:30am 7.8 5.4 7.2 96 0.3 NNE 9 11 5 6 1036.5 1036.5 2.0
28/12:00am 7.0 5.0 6.4 96 0.3 NE 6 9 3 5 1036.5 1036.5 2.0
 
Date/Time
CST
Tmp

°C
App
Tmp
°C
Dew
Point
°C
Rel
Hum
%
Delta-T

°C
Wind Press
QNH
hPa
Press
MSL
hPa
Rain
since
9 am
mm
Dir
 
Spd
km/h
Gust
km/h
Spd
kts
Gust
kts
27/11:44pm 6.6 4.0 5.9 95 0.3 NNE 9 11 5 6 1036.5 1036.5 2.0
27/11:30pm 6.4 3.7 5.5 94 0.4 NNE 9 11 5 6 1036.4 1036.4 2.0
27/11:00pm 7.5 4.6 6.4 93 0.5 NNE 11 13 6 7 1036.4 1036.4 2.0
27/10:30pm 8.2 5.4 7.1 93 0.5 NE 11 13 6 7 1036.3 1036.3 2.0
27/10:16pm 8.1 5.3 6.9 92 0.6 NNE 11 13 6 7 1036.3 1036.3 2.0
27/10:00pm 8.7 6.7 7.3 91 0.7 NNW 7 13 4 7 1036.5 1036.5 2.0
27/09:30pm 8.9 7.2 7.4 90 0.7 ESE 6 9 3 5 1036.4 1036.4 1.8
27/09:27pm 8.7 7.3 7.3 91 0.7 ESE 4 9 2 5 1036.4 1036.4 1.8
27/09:00pm 8.1 6.6 6.7 91 0.6 NNE 4 7 2 4 1036.3 1036.3 1.8
27/08:30pm 8.1 5.3 6.9 92 0.5 NE 11 13 6 7 1036.0 1036.0 1.8
27/08:00pm 6.6 3.5 5.4 92 0.5 NE 11 13 6 7 1036.0 1036.0 1.8
27/07:30pm 6.5 5.3 4.7 88 0.8 CALM 0 7 0 4 1036.0 1036.0 1.8
27/07:00pm 7.5 6.4 5.1 85 1.1 CALM 0 0 0 0 1035.9 1035.9 1.8
27/06:30pm 8.3 6.3 6.1 86 1.0 WSW 6 6 3 3 1035.7 1035.7 1.8
27/06:00pm 8.3 6.1 5.2 81 1.4 WSW 6 7 3 4 1035.3 1035.3 1.8
27/05:30pm 8.6 5.8 5.2 79 1.5 WSW 9 11 5 6 1035.2 1035.2 1.8
27/05:00pm 9.5 6.4 5.5 76 1.8 W 11 17 6 9 1034.9 1034.9 1.8
27/04:30pm 11.5 7.6 5.4 66 2.8 WSW 15 19 8 10 1034.9 1034.9 1.8
27/04:00pm 12.2 7.9 5.4 63 3.2 W 17 20 9 11 1034.7 1034.7 1.8
27/03:30pm 12.0 7.7 5.4 64 3.0 W 17 24 9 13 1034.6 1034.6 1.8
27/03:00pm 12.8 8.5 6.8 67 2.9 W 19 22 10 12 1034.5 1034.5 1.8
27/02:30pm 12.8 8.9 7.0 68 2.8 W 17 24 9 13 1034.3 1034.3 1.8
27/02:00pm 11.2 10.1 8.4 83 1.4 ENE 4 7 2 4 1034.3 1034.3 1.8
27/01:31pm 10.5 9.0 8.3 86 1.1 SSE 6 9 3 5 1034.3 1034.3 1.8
27/01:30pm 10.4 8.8 8.2 86 1.1 SSE 6 9 3 5 1034.3 1034.3 1.8
27/01:08pm 10.1 7.9 8.0 87 1.0 SSE 9 15 5 8 1034.5 1034.5 1.4
27/01:00pm 10.1 8.3 7.9 86 1.1 SSW 7 13 4 7 1034.6 1034.6 1.4
27/12:52pm 10.4 8.6 7.3 81 1.5 NW 6 11 3 6 1034.8 1034.8 1.2
27/12:48pm 10.4 8.4 7.1 80 1.6 WNW 7 11 4 6 1034.8 1034.8 0.8
27/12:30pm 11.5 9.0 6.4 71 2.4 WNW 9 13 5 7 1034.9 1034.9 0.0
27/12:00pm 11.6 9.3 7.3 75 2.0 N 9 17 5 9 1035.2 1035.2 0.0
27/11:30am 10.6 7.5 7.1 79 1.6 N 13 17 7 9 1035.5 1035.5 0.0
27/11:00am 10.8 7.3 7.3 79 1.7 N 15 19 8 10 1035.8 1035.8 0.0
27/10:30am 9.9 6.4 7.0 82 1.4 NNE 15 17 8 9 1035.7 1035.7 0.0
27/10:00am 8.3 4.9 5.8 84 1.1 NNE 13 17 7 9 1035.5 1035.5 0.0
27/09:30am 7.7 3.6 6.0 89 0.8 N 17 20 9 11 1035.3 1035.3 0.0
27/09:00am 7.5 4.1 6.1 91 0.6 NNE 13 17 7 9 1035.0 1035.0 1.0
27/08:30am 6.6 3.9 5.7 94 0.4 NNE 9 13 5 7 1034.7 1034.7 1.0
27/08:00am 5.8 3.6 5.2 96 0.3 NNE 6 9 3 5 1034.4 1034.4 1.0
27/07:30am 3.4 0.2 2.8 96 0.2 NE 9 11 5 6 1033.9 1033.9 1.0
27/07:00am 3.5 -0.1 2.9 96 0.2 NNE 11 13 6 7 1033.4 1033.4 1.0
27/06:30am 4.0 0.9 3.4 96 0.2 NNE 9 13 5 7 1033.1 1033.1 1.0
27/06:00am 4.1 1.4 3.7 97 0.2 NE 7 9 4 5 1032.8 1032.8 1.0
27/05:30am 1.9 -1.6 1.3 96 0.2 ENE 9 11 5 6 1032.3 1032.3 0.8
27/05:00am 2.5 -0.9 1.9 96 0.2 NNE 9 11 5 6 1032.1 1032.1 0.8
27/04:30am 2.1 -1.4 1.5 96 0.2 NE 9 9 5 5 1031.9 1031.9 0.8
27/04:00am 2.1 -1.4 1.5 96 0.2 NNE 9 11 5 6 1031.4 1031.4 0.8
27/03:30am 3.2 0.5 2.6 96 0.2 NE 6 9 3 5 1031.3 1031.3 0.8
27/03:00am 3.3 -0.3 2.7 96 0.2 NE 11 11 6 6 1031.3 1031.3 0.8
27/02:30am 2.1 -1.4 1.5 96 0.2 NE 9 11 5 6 1031.2 1031.2 0.8
27/02:00am 3.4 0.5 2.8 96 0.2 N 7 9 4 5 1031.1 1031.1 0.8
27/01:30am 2.9 -0.1 2.2 95 0.3 NE 7 11 4 6 1031.0 1031.0 0.8
27/01:08am 3.7 0.9 3.1 96 0.2 NNE 7 9 4 5 1030.7 1030.7 0.8
27/01:00am 4.0 0.9 3.4 96 0.2 NE 9 9 5 5 1030.7 1030.7 0.8
27/12:30am 4.9 3.6 4.2 95 0.3 CALM 0 0 0 0 1030.6 1030.6 0.8
27/12:27am 4.9 3.6 4.2 95 0.3 CALM 0 0 0 0 1030.5 1030.5 0.8
27/12:02am 5.0 3.7 4.1 94 0.4 CALM 0 0 0 0 1030.4 1030.4 0.8
27/12:00am 4.9 3.6 4.0 94 0.4 CALM 0 0 0 0 1030.4 1030.4 0.8
 
Date/Time
CST
Tmp

°C
App
Tmp
°C
Dew
Point
°C
Rel
Hum
%
Delta-T

°C
Wind Press
QNH
hPa
Press
MSL
hPa
Rain
since
9 am
mm
Dir
 
Spd
km/h
Gust
km/h
Spd
kts
Gust
kts
26/11:30pm 5.4 4.1 4.2 92 0.5 CALM 0 0 0 0 1030.3 1030.3 0.8
26/11:00pm 6.7 5.5 4.4 85 1.0 CALM 0 0 0 0 1030.2 1030.2 0.8
26/10:30pm 7.1 5.0 5.7 91 0.6 S 6 13 3 7 1030.2 1030.2 0.8
26/10:23pm 7.1 4.0 5.7 91 0.6 S 11 15 6 8 1030.3 1030.3 0.8
26/10:00pm 4.9 2.4 4.0 94 0.4 ENE 6 7 3 4 1030.0 1030.0 0.8
26/09:57pm 4.8 2.3 3.9 94 0.4 ENE 6 7 3 4 1029.9 1029.9 0.8
26/09:30pm 5.8 4.6 4.8 93 0.4 CALM 0 0 0 0 1029.6 1029.6 0.8
26/09:00pm 6.3 4.0 4.9 91 0.6 ENE 6 7 3 4 1029.3 1029.3 0.8
26/08:30pm 6.8 4.5 4.8 87 0.9 SE 6 7 3 4 1028.9 1028.9 0.8
26/08:00pm 7.7 5.5 5.3 85 1.1 S 6 9 3 5 1028.5 1028.5 0.8
26/07:30pm 8.0 6.2 5.6 85 1.1 WSW 4 9 2 5 1028.3 1028.3 0.6
26/07:00pm 7.1 5.8 4.1 81 1.3 CALM 0 6 0 3 1027.8 1027.8 0.2
26/06:30pm 8.8 5.2 4.8 76 1.8 SSW 13 19 7 10 1027.3 1027.3 0.2
26/06:00pm 8.0 4.6 4.2 77 1.6 WSW 11 15 6 8 1026.8 1026.8 0.2
26/05:30pm 8.7 4.9 3.9 72 2.1 WSW 13 19 7 10 1026.4 1026.4 0.2
26/05:00pm 10.0 3.5 4.6 69 2.4 WSW 28 37 15 20 1026.0 1026.0 0.2
26/04:30pm 10.8 4.8 3.6 61 3.1 SW 24 32 13 17 1025.5 1025.5 0.2
26/04:00pm 11.4 5.4 3.4 58 3.5 WSW 24 35 13 19 1025.2 1025.2 0.2
26/03:30pm 10.5 4.3 4.4 66 2.7 SW 26 37 14 20 1025.1 1025.1 0.2
26/03:00pm 12.3 6.0 4.0 57 3.7 WSW 26 37 14 20 1024.7 1024.7 0.2
26/02:30pm 11.8 5.1 3.8 58 3.5 WSW 28 39 15 21 1024.7 1024.7 0.2
26/02:00pm 12.3 4.8 3.5 55 3.9 SW 32 39 17 21 1024.3 1024.3 0.2
26/01:30pm 12.0 5.3 3.5 56 3.7 SW 28 39 15 21 1024.3 1024.3 0.2
26/01:00pm 12.4 5.3 3.4 54 4.0 WSW 30 39 16 21 1024.2 1024.2 0.2
26/12:30pm 11.8 4.3 3.3 56 3.7 WSW 32 43 17 23 1024.1 1024.1 0.2
26/12:00pm 12.2 3.7 2.9 53 4.1 SW 37 48 20 26 1024.1 1024.1 0.2
26/11:30am 12.2 4.6 2.9 53 4.1 SW 32 43 17 23 1023.8 1023.8 0.2
26/11:00am 11.9 3.4 2.9 54 3.9 SW 37 46 20 25 1023.8 1023.8 0.2
26/10:31am 11.5 3.7 3.0 56 3.7 WSW 33 52 18 28 1023.7 1023.7 0.0
26/10:30am 11.5 3.4 3.0 56 3.7 WSW 35 52 19 28 1023.7 1023.7 0.0
26/10:00am 11.4 4.6 2.9 56 3.7 SW 28 39 15 21 1023.2 1023.2 0.0
26/09:30am 11.0 3.9 3.3 59 3.4 WSW 30 44 16 24 1022.8 1022.8 0.0
26/09:00am 10.5 4.5 3.3 61 3.1 SW 24 35 13 19 1022.7 1022.7 19.4
26/08:30am 9.5 5.4 4.3 70 2.3 WSW 15 26 8 14 1022.3 1022.3 19.4
26/08:00am 9.2 4.2 4.4 72 2.1 W 20 28 11 15 1021.8 1021.8 19.4
26/07:30am 8.1 3.7 4.9 80 1.4 W 17 20 9 11 1021.0 1021.1 19.4
26/07:00am 7.7 2.6 3.9 77 1.6 W 20 28 11 15 1020.4 1020.5 19.4
26/06:30am 7.8 0.3 4.4 79 1.5 WSW 33 57 18 31 1020.2 1020.3 19.4
26/06:26am 8.9 2.2 3.7 70 2.3 WSW 28 57 15 31 1020.0 1020.1 19.4
26/06:00am 8.2 2.7 4.0 75 1.8 WSW 22 30 12 16 1019.3 1019.4 19.4
26/05:32am 8.7 2.4 5.8 82 1.3 WSW 28 48 15 26 1019.0 1019.1 19.2
26/05:30am 9.1 3.5 5.3 77 1.7 WSW 24 48 13 26 1019.0 1019.1 19.0
26/05:00am 7.6 2.8 4.6 81 1.3 WSW 19 26 10 14 1018.5 1018.6 18.8
26/04:30am 8.3 0.4 6.1 86 1.0 SW 37 56 20 30 1018.5 1018.6 18.8
26/04:17am 10.0 3.5 4.8 70 2.3 WSW 28 44 15 24 1018.0 1018.1 18.6
26/04:00am 9.9 3.9 5.1 72 2.2 W 26 39 14 21 1017.8 1017.9 18.6
26/03:30am 9.3 3.7 5.5 77 1.7 W 24 33 13 18 1017.7 1017.8 18.6
26/03:00am 9.2 4.4 5.8 79 1.5 W 20 30 11 16 1017.9 1018.0 18.6
26/02:30am 9.9 3.6 5.5 74 2.0 WSW 28 39 15 21 1018.0 1018.1 18.6
26/02:00am 10.4 4.6 6.4 76 1.9 WSW 26 37 14 20 1017.7 1017.8 18.6
26/01:30am 10.9 4.3 6.1 72 2.2 WSW 30 43 16 23 1017.5 1017.6 18.6
26/01:00am 10.9 5.7 7.4 79 1.7 W 24 32 13 17 1017.3 1017.4 18.6
26/12:30am 11.1 6.4 7.6 79 1.7 WSW 22 32 12 17 1016.9 1017.0 18.6
26/12:00am 11.1 5.8 8.5 84 1.3 WSW 26 35 14 19 1016.9 1017.0 18.6
 
Date/Time
CST
Tmp

°C
App
Tmp
°C
Dew
Point
°C
Rel
Hum
%
Delta-T

°C
Wind Press
QNH
hPa
Press
MSL
hPa
Rain
since
9 am
mm
Dir
 
Spd
km/h
Gust
km/h
Spd
kts
Gust
kts
25/11:30pm 11.0 6.2 8.9 87 1.0 WSW 24 33 13 18 1016.7 1016.8 18.6
25/11:07pm 11.3 5.8 9.2 87 1.0 WSW 28 44 15 24 1016.4 1016.5 18.6
25/11:00pm 11.1 6.1 9.7 91 0.7 WSW 26 33 14 18 1016.3 1016.4 18.6
25/10:59pm 11.1 5.8 9.7 91 0.7 WSW 28 39 15 21 1016.3 1016.4 18.6
25/10:43pm 11.0 4.3 9.8 92 0.6 WSW 35 52 19 28 1016.2 1016.3 18.2

Latest Capital City Observations: Canberra | Sydney | Melbourne | Brisbane | Adelaide | Perth | Hobart | Darwin

Other Formats:

Comma delimited format used in spreadsheet applications
http://www.bom.gov.au/fwo/IDS60901/IDS60901.95677.axf

JavaScript Object Notation format (JSON) in row-major order
http://www.bom.gov.au/fwo/IDS60901/IDS60901.95677.json